sensor_id;sensor_type;location;lat;lon;timestamp;P1;durP1;ratioP1;P2;durP2;ratioP2
37339;SDS011;23223;51.006;7.610;2024-02-21T00:00:45;9.52;;;3.65;;
37339;SDS011;23223;51.006;7.610;2024-02-21T00:03:11;16.15;;;5.57;;
37339;SDS011;23223;51.006;7.610;2024-02-21T00:05:37;7.68;;;3.47;;
37339;SDS011;23223;51.006;7.610;2024-02-21T00:08:02;18.80;;;4.93;;
37339;SDS011;23223;51.006;7.610;2024-02-21T00:10:28;17.42;;;4.90;;
37339;SDS011;23223;51.006;7.610;2024-02-21T00:12:56;11.32;;;4.15;;
37339;SDS011;23223;51.006;7.610;2024-02-21T00:15:22;14.80;;;3.88;;
37339;SDS011;23223;51.006;7.610;2024-02-21T00:17:48;15.23;;;6.18;;
37339;SDS011;23223;51.006;7.610;2024-02-21T00:20:14;13.05;;;5.60;;
37339;SDS011;23223;51.006;7.610;2024-02-21T00:22:39;13.68;;;5.28;;
37339;SDS011;23223;51.006;7.610;2024-02-21T00:25:05;14.85;;;5.60;;
37339;SDS011;23223;51.006;7.610;2024-02-21T00:27:31;15.85;;;5.70;;
37339;SDS011;23223;51.006;7.610;2024-02-21T00:29:57;14.05;;;5.75;;
37339;SDS011;23223;51.006;7.610;2024-02-21T00:32:22;11.30;;;4.55;;
37339;SDS011;23223;51.006;7.610;2024-02-21T00:34:48;11.48;;;5.43;;
37339;SDS011;23223;51.006;7.610;2024-02-21T00:37:14;15.50;;;6.15;;
37339;SDS011;23223;51.006;7.610;2024-02-21T00:39:39;14.40;;;6.60;;
37339;SDS011;23223;51.006;7.610;2024-02-21T00:42:07;12.15;;;5.63;;
37339;SDS011;23223;51.006;7.610;2024-02-21T00:44:32;15.38;;;5.78;;
37339;SDS011;23223;51.006;7.610;2024-02-21T00:46:58;11.27;;;4.72;;
37339;SDS011;23223;51.006;7.610;2024-02-21T00:49:24;12.85;;;6.07;;
37339;SDS011;23223;51.006;7.610;2024-02-21T00:51:49;15.07;;;6.63;;
37339;SDS011;23223;51.006;7.610;2024-02-21T00:54:15;10.77;;;5.25;;
37339;SDS011;23223;51.006;7.610;2024-02-21T00:56:41;12.00;;;4.63;;
37339;SDS011;23223;51.006;7.610;2024-02-21T00:59:07;6.82;;;3.72;;
37339;SDS011;23223;51.006;7.610;2024-02-21T01:01:33;15.43;;;5.03;;
37339;SDS011;23223;51.006;7.610;2024-02-21T01:03:58;9.60;;;4.07;;
37339;SDS011;23223;51.006;7.610;2024-02-21T01:06:24;15.55;;;6.40;;
37339;SDS011;23223;51.006;7.610;2024-02-21T01:08:50;15.80;;;5.45;;
37339;SDS011;23223;51.006;7.610;2024-02-21T01:11:15;16.58;;;5.40;;
37339;SDS011;23223;51.006;7.610;2024-02-21T01:13:41;15.40;;;5.05;;
37339;SDS011;23223;51.006;7.610;2024-02-21T01:16:07;9.40;;;4.20;;
37339;SDS011;23223;51.006;7.610;2024-02-21T01:18:33;11.57;;;4.50;;
37339;SDS011;23223;51.006;7.610;2024-02-21T01:20:59;22.88;;;6.93;;
37339;SDS011;23223;51.006;7.610;2024-02-21T01:23:25;12.93;;;5.63;;
37339;SDS011;23223;51.006;7.610;2024-02-21T01:25:51;17.83;;;6.70;;
37339;SDS011;23223;51.006;7.610;2024-02-21T01:28:17;20.77;;;7.15;;
37339;SDS011;23223;51.006;7.610;2024-02-21T01:30:43;17.77;;;6.75;;
37339;SDS011;23223;51.006;7.610;2024-02-21T01:33:09;18.45;;;6.57;;
37339;SDS011;23223;51.006;7.610;2024-02-21T01:35:35;14.57;;;6.43;;
37339;SDS011;23223;51.006;7.610;2024-02-21T01:38:02;14.02;;;5.18;;
37339;SDS011;23223;51.006;7.610;2024-02-21T01:40:28;17.50;;;6.05;;
37339;SDS011;23223;51.006;7.610;2024-02-21T01:42:54;14.13;;;6.65;;
37339;SDS011;23223;51.006;7.610;2024-02-21T01:45:20;10.98;;;5.40;;
37339;SDS011;23223;51.006;7.610;2024-02-21T01:47:46;13.35;;;6.03;;
37339;SDS011;23223;51.006;7.610;2024-02-21T01:50:12;18.05;;;6.32;;
37339;SDS011;23223;51.006;7.610;2024-02-21T01:52:39;16.23;;;5.88;;
37339;SDS011;23223;51.006;7.610;2024-02-21T01:55:06;11.63;;;5.65;;
37339;SDS011;23223;51.006;7.610;2024-02-21T01:57:33;18.15;;;6.20;;
37339;SDS011;23223;51.006;7.610;2024-02-21T01:59:59;13.50;;;5.93;;
37339;SDS011;23223;51.006;7.610;2024-02-21T02:02:25;14.68;;;6.07;;
37339;SDS011;23223;51.006;7.610;2024-02-21T02:04:51;18.67;;;6.13;;
37339;SDS011;23223;51.006;7.610;2024-02-21T02:07:17;13.95;;;5.60;;
37339;SDS011;23223;51.006;7.610;2024-02-21T02:09:43;10.23;;;5.82;;
37339;SDS011;23223;51.006;7.610;2024-02-21T02:12:08;14.82;;;5.57;;
37339;SDS011;23223;51.006;7.610;2024-02-21T02:14:34;19.15;;;5.50;;
37339;SDS011;23223;51.006;7.610;2024-02-21T02:17:00;13.73;;;6.57;;
37339;SDS011;23223;51.006;7.610;2024-02-21T02:19:25;17.10;;;5.40;;
37339;SDS011;23223;51.006;7.610;2024-02-21T02:21:53;16.83;;;5.88;;
37339;SDS011;23223;51.006;7.610;2024-02-21T02:24:23;13.45;;;4.90;;
37339;SDS011;23223;51.006;7.610;2024-02-21T02:26:53;20.70;;;6.70;;
37339;SDS011;23223;51.006;7.610;2024-02-21T02:29:19;13.02;;;5.47;;
37339;SDS011;23223;51.006;7.610;2024-02-21T02:31:44;16.95;;;6.10;;
37339;SDS011;23223;51.006;7.610;2024-02-21T02:34:10;16.52;;;6.35;;
37339;SDS011;23223;51.006;7.610;2024-02-21T02:36:35;15.68;;;6.05;;
37339;SDS011;23223;51.006;7.610;2024-02-21T02:39:01;15.00;;;6.35;;
37339;SDS011;23223;51.006;7.610;2024-02-21T02:41:27;16.90;;;5.60;;
37339;SDS011;23223;51.006;7.610;2024-02-21T02:43:52;10.70;;;4.22;;
37339;SDS011;23223;51.006;7.610;2024-02-21T02:46:18;16.25;;;6.00;;
37339;SDS011;23223;51.006;7.610;2024-02-21T02:48:43;11.55;;;4.30;;
37339;SDS011;23223;51.006;7.610;2024-02-21T02:51:10;13.82;;;5.03;;
37339;SDS011;23223;51.006;7.610;2024-02-21T02:53:35;10.10;;;4.82;;
37339;SDS011;23223;51.006;7.610;2024-02-21T02:56:01;6.32;;;2.92;;
37339;SDS011;23223;51.006;7.610;2024-02-21T02:58:26;13.68;;;5.95;;
37339;SDS011;23223;51.006;7.610;2024-02-21T03:00:53;14.65;;;5.47;;
37339;SDS011;23223;51.006;7.610;2024-02-21T03:03:18;18.75;;;6.53;;
37339;SDS011;23223;51.006;7.610;2024-02-21T03:05:44;17.30;;;6.05;;
37339;SDS011;23223;51.006;7.610;2024-02-21T03:08:11;7.68;;;4.25;;
37339;SDS011;23223;51.006;7.610;2024-02-21T03:10:36;11.02;;;6.00;;
37339;SDS011;23223;51.006;7.610;2024-02-21T03:13:02;11.70;;;4.18;;
37339;SDS011;23223;51.006;7.610;2024-02-21T03:15:28;9.68;;;3.97;;
37339;SDS011;23223;51.006;7.610;2024-02-21T03:17:54;9.65;;;5.28;;
37339;SDS011;23223;51.006;7.610;2024-02-21T03:20:19;19.55;;;5.57;;
37339;SDS011;23223;51.006;7.610;2024-02-21T03:22:45;17.65;;;5.30;;
37339;SDS011;23223;51.006;7.610;2024-02-21T03:25:11;9.70;;;4.18;;
37339;SDS011;23223;51.006;7.610;2024-02-21T03:27:37;16.00;;;5.20;;
37339;SDS011;23223;51.006;7.610;2024-02-21T03:30:04;12.43;;;5.22;;
37339;SDS011;23223;51.006;7.610;2024-02-21T03:32:30;13.55;;;4.78;;
37339;SDS011;23223;51.006;7.610;2024-02-21T03:34:55;10.95;;;4.55;;
37339;SDS011;23223;51.006;7.610;2024-02-21T03:37:21;10.35;;;3.85;;
37339;SDS011;23223;51.006;7.610;2024-02-21T03:39:47;18.15;;;5.25;;
37339;SDS011;23223;51.006;7.610;2024-02-21T03:42:12;7.68;;;4.47;;
37339;SDS011;23223;51.006;7.610;2024-02-21T03:44:38;11.95;;;4.97;;
37339;SDS011;23223;51.006;7.610;2024-02-21T03:47:04;20.00;;;5.32;;
37339;SDS011;23223;51.006;7.610;2024-02-21T03:49:30;14.55;;;6.20;;
37339;SDS011;23223;51.006;7.610;2024-02-21T03:51:55;17.38;;;6.78;;
37339;SDS011;23223;51.006;7.610;2024-02-21T03:54:21;14.90;;;6.03;;
37339;SDS011;23223;51.006;7.610;2024-02-21T03:56:47;16.75;;;6.25;;
37339;SDS011;23223;51.006;7.610;2024-02-21T03:59:13;17.77;;;6.88;;
37339;SDS011;23223;51.006;7.610;2024-02-21T04:01:39;12.80;;;5.43;;
37339;SDS011;23223;51.006;7.610;2024-02-21T04:04:04;17.77;;;6.10;;
37339;SDS011;23223;51.006;7.610;2024-02-21T04:06:30;19.90;;;5.97;;
37339;SDS011;23223;51.006;7.610;2024-02-21T04:08:56;17.02;;;5.07;;
37339;SDS011;23223;51.006;7.610;2024-02-21T04:11:22;12.00;;;4.72;;
37339;SDS011;23223;51.006;7.610;2024-02-21T04:13:47;11.63;;;4.88;;
37339;SDS011;23223;51.006;7.610;2024-02-21T04:16:15;15.63;;;5.43;;
37339;SDS011;23223;51.006;7.610;2024-02-21T04:18:41;12.00;;;4.90;;
37339;SDS011;23223;51.006;7.610;2024-02-21T04:21:06;12.70;;;5.45;;
37339;SDS011;23223;51.006;7.610;2024-02-21T04:23:32;15.13;;;3.90;;
37339;SDS011;23223;51.006;7.610;2024-02-21T04:25:58;18.40;;;6.05;;
37339;SDS011;23223;51.006;7.610;2024-02-21T04:28:23;13.55;;;4.40;;
37339;SDS011;23223;51.006;7.610;2024-02-21T04:30:49;14.90;;;5.15;;
37339;SDS011;23223;51.006;7.610;2024-02-21T04:33:15;17.45;;;4.97;;
37339;SDS011;23223;51.006;7.610;2024-02-21T04:35:40;15.35;;;5.45;;
37339;SDS011;23223;51.006;7.610;2024-02-21T04:38:06;16.17;;;4.95;;
37339;SDS011;23223;51.006;7.610;2024-02-21T04:40:31;22.77;;;6.60;;
37339;SDS011;23223;51.006;7.610;2024-02-21T04:42:57;12.05;;;4.97;;
37339;SDS011;23223;51.006;7.610;2024-02-21T04:45:23;15.68;;;5.25;;
37339;SDS011;23223;51.006;7.610;2024-02-21T04:47:49;12.60;;;5.65;;
37339;SDS011;23223;51.006;7.610;2024-02-21T04:50:14;7.95;;;4.35;;
37339;SDS011;23223;51.006;7.610;2024-02-21T04:52:40;8.48;;;4.70;;
37339;SDS011;23223;51.006;7.610;2024-02-21T04:55:06;14.20;;;5.00;;
37339;SDS011;23223;51.006;7.610;2024-02-21T04:57:32;11.25;;;4.97;;
37339;SDS011;23223;51.006;7.610;2024-02-21T04:59:57;11.70;;;4.70;;
37339;SDS011;23223;51.006;7.610;2024-02-21T05:02:23;10.95;;;5.43;;
37339;SDS011;23223;51.006;7.610;2024-02-21T05:04:49;15.35;;;5.25;;
37339;SDS011;23223;51.006;7.610;2024-02-21T05:07:15;16.05;;;5.05;;
37339;SDS011;23223;51.006;7.610;2024-02-21T05:09:42;17.65;;;4.65;;
37339;SDS011;23223;51.006;7.610;2024-02-21T05:12:08;12.60;;;5.15;;
37339;SDS011;23223;51.006;7.610;2024-02-21T05:14:33;20.13;;;5.15;;
37339;SDS011;23223;51.006;7.610;2024-02-21T05:16:59;17.42;;;4.50;;
37339;SDS011;23223;51.006;7.610;2024-02-21T05:19:25;12.85;;;4.05;;
37339;SDS011;23223;51.006;7.610;2024-02-21T05:21:50;15.23;;;3.65;;
37339;SDS011;23223;51.006;7.610;2024-02-21T05:24:16;9.43;;;3.72;;
37339;SDS011;23223;51.006;7.610;2024-02-21T05:26:42;13.60;;;4.15;;
37339;SDS011;23223;51.006;7.610;2024-02-21T05:29:07;13.65;;;4.03;;
37339;SDS011;23223;51.006;7.610;2024-02-21T05:34:18;16.38;;;4.60;;
37339;SDS011;23223;51.006;7.610;2024-02-21T05:36:44;17.35;;;4.85;;
37339;SDS011;23223;51.006;7.610;2024-02-21T05:39:09;9.95;;;3.25;;
37339;SDS011;23223;51.006;7.610;2024-02-21T05:41:35;10.77;;;3.72;;
37339;SDS011;23223;51.006;7.610;2024-02-21T05:44:01;11.60;;;3.60;;
37339;SDS011;23223;51.006;7.610;2024-02-21T05:46:26;18.02;;;5.05;;
37339;SDS011;23223;51.006;7.610;2024-02-21T05:48:52;10.25;;;4.15;;
37339;SDS011;23223;51.006;7.610;2024-02-21T05:51:18;10.73;;;4.05;;
37339;SDS011;23223;51.006;7.610;2024-02-21T05:53:43;16.08;;;4.68;;
37339;SDS011;23223;51.006;7.610;2024-02-21T05:56:12;19.52;;;5.00;;
37339;SDS011;23223;51.006;7.610;2024-02-21T05:58:39;12.95;;;4.45;;
37339;SDS011;23223;51.006;7.610;2024-02-21T06:01:05;15.35;;;4.20;;
37339;SDS011;23223;51.006;7.610;2024-02-21T06:03:32;13.73;;;5.13;;
37339;SDS011;23223;51.006;7.610;2024-02-21T06:06:01;12.73;;;4.88;;
37339;SDS011;23223;51.006;7.610;2024-02-21T06:08:28;12.70;;;5.82;;
37339;SDS011;23223;51.006;7.610;2024-02-21T06:10:54;15.23;;;4.60;;
37339;SDS011;23223;51.006;7.610;2024-02-21T06:13:28;13.75;;;5.05;;
37339;SDS011;23223;51.006;7.610;2024-02-21T06:15:54;10.43;;;3.85;;
37339;SDS011;23223;51.006;7.610;2024-02-21T06:18:20;18.63;;;4.78;;
37339;SDS011;23223;51.006;7.610;2024-02-21T06:20:46;14.07;;;4.93;;
37339;SDS011;23223;51.006;7.610;2024-02-21T06:23:15;13.80;;;4.15;;
37339;SDS011;23223;51.006;7.610;2024-02-21T06:25:42;13.02;;;4.25;;
37339;SDS011;23223;51.006;7.610;2024-02-21T06:28:07;17.48;;;4.57;;
37339;SDS011;23223;51.006;7.610;2024-02-21T06:30:33;16.40;;;5.22;;
37339;SDS011;23223;51.006;7.610;2024-02-21T06:32:59;12.55;;;5.15;;
37339;SDS011;23223;51.006;7.610;2024-02-21T06:35:27;13.10;;;4.85;;
37339;SDS011;23223;51.006;7.610;2024-02-21T06:37:53;12.70;;;4.10;;
37339;SDS011;23223;51.006;7.610;2024-02-21T06:40:20;18.77;;;5.55;;
37339;SDS011;23223;51.006;7.610;2024-02-21T06:42:46;16.20;;;5.00;;
37339;SDS011;23223;51.006;7.610;2024-02-21T06:45:12;12.73;;;4.82;;
37339;SDS011;23223;51.006;7.610;2024-02-21T06:47:38;15.75;;;4.75;;
37339;SDS011;23223;51.006;7.610;2024-02-21T06:50:03;16.35;;;5.55;;
37339;SDS011;23223;51.006;7.610;2024-02-21T06:52:29;10.80;;;4.40;;
37339;SDS011;23223;51.006;7.610;2024-02-21T06:54:56;14.27;;;4.80;;
37339;SDS011;23223;51.006;7.610;2024-02-21T06:57:21;15.52;;;4.45;;
37339;SDS011;23223;51.006;7.610;2024-02-21T06:59:47;9.77;;;4.68;;
37339;SDS011;23223;51.006;7.610;2024-02-21T07:02:13;11.13;;;4.65;;
37339;SDS011;23223;51.006;7.610;2024-02-21T07:04:38;15.50;;;5.45;;
37339;SDS011;23223;51.006;7.610;2024-02-21T07:07:04;11.65;;;3.90;;
37339;SDS011;23223;51.006;7.610;2024-02-21T07:09:30;14.02;;;5.22;;
37339;SDS011;23223;51.006;7.610;2024-02-21T07:11:57;13.52;;;4.82;;
37339;SDS011;23223;51.006;7.610;2024-02-21T07:14:23;12.32;;;4.28;;
37339;SDS011;23223;51.006;7.610;2024-02-21T07:16:49;10.63;;;4.20;;
37339;SDS011;23223;51.006;7.610;2024-02-21T07:19:14;16.42;;;4.07;;
37339;SDS011;23223;51.006;7.610;2024-02-21T07:21:40;14.90;;;5.32;;
37339;SDS011;23223;51.006;7.610;2024-02-21T07:24:07;16.00;;;7.80;;
37339;SDS011;23223;51.006;7.610;2024-02-21T07:26:33;13.40;;;5.72;;
37339;SDS011;23223;51.006;7.610;2024-02-21T07:28:58;10.85;;;5.25;;
37339;SDS011;23223;51.006;7.610;2024-02-21T07:31:24;11.05;;;5.95;;
37339;SDS011;23223;51.006;7.610;2024-02-21T07:33:50;16.98;;;3.95;;
37339;SDS011;23223;51.006;7.610;2024-02-21T07:36:15;8.20;;;4.45;;
37339;SDS011;23223;51.006;7.610;2024-02-21T07:38:49;12.10;;;3.72;;
37339;SDS011;23223;51.006;7.610;2024-02-21T07:41:15;10.98;;;3.88;;
37339;SDS011;23223;51.006;7.610;2024-02-21T07:43:40;12.32;;;4.25;;
37339;SDS011;23223;51.006;7.610;2024-02-21T07:46:06;13.73;;;5.78;;
37339;SDS011;23223;51.006;7.610;2024-02-21T07:48:32;12.38;;;4.28;;
37339;SDS011;23223;51.006;7.610;2024-02-21T07:50:58;8.50;;;4.10;;
37339;SDS011;23223;51.006;7.610;2024-02-21T07:53:23;9.45;;;4.18;;
37339;SDS011;23223;51.006;7.610;2024-02-21T07:55:49;13.32;;;4.75;;
37339;SDS011;23223;51.006;7.610;2024-02-21T07:58:14;15.07;;;4.25;;
37339;SDS011;23223;51.006;7.610;2024-02-21T08:00:40;12.43;;;4.35;;
37339;SDS011;23223;51.006;7.610;2024-02-21T08:03:06;15.95;;;3.78;;
37339;SDS011;23223;51.006;7.610;2024-02-21T08:05:33;15.90;;;5.38;;
37339;SDS011;23223;51.006;7.610;2024-02-21T08:07:59;11.75;;;4.18;;
37339;SDS011;23223;51.006;7.610;2024-02-21T08:10:25;12.88;;;4.50;;
37339;SDS011;23223;51.006;7.610;2024-02-21T08:12:50;11.38;;;4.22;;
37339;SDS011;23223;51.006;7.610;2024-02-21T08:15:16;16.67;;;4.50;;
37339;SDS011;23223;51.006;7.610;2024-02-21T08:17:42;9.80;;;3.88;;
37339;SDS011;23223;51.006;7.610;2024-02-21T08:20:07;8.48;;;3.97;;
37339;SDS011;23223;51.006;7.610;2024-02-21T08:22:33;7.97;;;3.75;;
37339;SDS011;23223;51.006;7.610;2024-02-21T08:25:02;7.78;;;2.83;;
37339;SDS011;23223;51.006;7.610;2024-02-21T08:27:30;11.88;;;3.38;;
37339;SDS011;23223;51.006;7.610;2024-02-21T08:29:56;8.63;;;2.50;;
37339;SDS011;23223;51.006;7.610;2024-02-21T08:32:21;3.47;;;2.25;;
37339;SDS011;23223;51.006;7.610;2024-02-21T08:34:47;9.05;;;3.30;;
37339;SDS011;23223;51.006;7.610;2024-02-21T08:37:12;8.45;;;3.83;;
37339;SDS011;23223;51.006;7.610;2024-02-21T08:39:38;12.25;;;2.85;;
37339;SDS011;23223;51.006;7.610;2024-02-21T08:42:04;8.70;;;3.38;;
37339;SDS011;23223;51.006;7.610;2024-02-21T08:44:30;8.15;;;3.65;;
37339;SDS011;23223;51.006;7.610;2024-02-21T08:46:55;7.88;;;3.10;;
37339;SDS011;23223;51.006;7.610;2024-02-21T08:49:21;9.77;;;3.92;;
37339;SDS011;23223;51.006;7.610;2024-02-21T08:51:47;10.13;;;4.20;;
37339;SDS011;23223;51.006;7.610;2024-02-21T08:54:12;7.97;;;3.22;;
37339;SDS011;23223;51.006;7.610;2024-02-21T08:56:38;7.93;;;3.67;;
37339;SDS011;23223;51.006;7.610;2024-02-21T08:59:04;9.15;;;3.38;;
37339;SDS011;23223;51.006;7.610;2024-02-21T09:01:29;8.18;;;2.85;;
37339;SDS011;23223;51.006;7.610;2024-02-21T09:03:55;10.55;;;4.25;;
37339;SDS011;23223;51.006;7.610;2024-02-21T09:06:21;5.93;;;3.50;;
37339;SDS011;23223;51.006;7.610;2024-02-21T09:08:47;11.32;;;3.05;;
37339;SDS011;23223;51.006;7.610;2024-02-21T09:11:13;9.90;;;3.90;;
37339;SDS011;23223;51.006;7.610;2024-02-21T09:13:39;9.25;;;4.22;;
37339;SDS011;23223;51.006;7.610;2024-02-21T09:16:05;8.15;;;3.25;;
37339;SDS011;23223;51.006;7.610;2024-02-21T09:18:31;10.60;;;4.25;;
37339;SDS011;23223;51.006;7.610;2024-02-21T09:20:56;9.30;;;4.18;;
37339;SDS011;23223;51.006;7.610;2024-02-21T09:23:25;18.15;;;4.95;;
37339;SDS011;23223;51.006;7.610;2024-02-21T09:25:51;10.98;;;3.80;;
37339;SDS011;23223;51.006;7.610;2024-02-21T09:28:16;9.43;;;3.42;;
37339;SDS011;23223;51.006;7.610;2024-02-21T09:30:42;10.25;;;3.15;;
37339;SDS011;23223;51.006;7.610;2024-02-21T09:33:08;10.55;;;4.20;;
37339;SDS011;23223;51.006;7.610;2024-02-21T09:35:33;12.68;;;3.95;;
37339;SDS011;23223;51.006;7.610;2024-02-21T09:37:59;10.50;;;2.88;;
37339;SDS011;23223;51.006;7.610;2024-02-21T09:40:25;14.05;;;5.25;;
37339;SDS011;23223;51.006;7.610;2024-02-21T09:42:53;13.77;;;5.10;;
37339;SDS011;23223;51.006;7.610;2024-02-21T09:45:27;10.20;;;4.18;;
37339;SDS011;23223;51.006;7.610;2024-02-21T09:50:47;10.57;;;3.85;;
37339;SDS011;23223;51.006;7.610;2024-02-21T09:53:14;8.38;;;3.75;;
37339;SDS011;23223;51.006;7.610;2024-02-21T09:55:40;6.43;;;2.75;;
37339;SDS011;23223;51.006;7.610;2024-02-21T09:58:09;13.68;;;4.35;;
37339;SDS011;23223;51.006;7.610;2024-02-21T10:00:36;10.77;;;4.38;;
37339;SDS011;23223;51.006;7.610;2024-02-21T10:03:02;16.75;;;5.55;;
37339;SDS011;23223;51.006;7.610;2024-02-21T10:05:37;15.93;;;3.85;;
37339;SDS011;23223;51.006;7.610;2024-02-21T10:08:03;10.23;;;3.80;;
37339;SDS011;23223;51.006;7.610;2024-02-21T10:10:29;16.75;;;4.35;;
37339;SDS011;23223;51.006;7.610;2024-02-21T10:12:55;15.32;;;4.95;;
37339;SDS011;23223;51.006;7.610;2024-02-21T10:15:22;6.55;;;3.10;;
37339;SDS011;23223;51.006;7.610;2024-02-21T10:17:49;12.20;;;3.97;;
37339;SDS011;23223;51.006;7.610;2024-02-21T10:20:22;12.35;;;3.88;;
37339;SDS011;23223;51.006;7.610;2024-02-21T10:22:48;7.35;;;2.55;;
37339;SDS011;23223;51.006;7.610;2024-02-21T10:25:14;10.00;;;3.00;;
37339;SDS011;23223;51.006;7.610;2024-02-21T10:27:40;15.50;;;4.15;;
37339;SDS011;23223;51.006;7.610;2024-02-21T10:30:12;16.40;;;4.07;;
37339;SDS011;23223;51.006;7.610;2024-02-21T10:32:51;10.48;;;3.95;;
37339;SDS011;23223;51.006;7.610;2024-02-21T10:35:25;11.30;;;3.67;;
37339;SDS011;23223;51.006;7.610;2024-02-21T10:37:54;12.10;;;3.40;;
37339;SDS011;23223;51.006;7.610;2024-02-21T10:40:27;12.75;;;3.78;;
37339;SDS011;23223;51.006;7.610;2024-02-21T10:42:59;13.55;;;4.68;;
37339;SDS011;23223;51.006;7.610;2024-02-21T10:45:32;13.98;;;4.80;;
37339;SDS011;23223;51.006;7.610;2024-02-21T10:50:57;12.07;;;4.55;;
37339;SDS011;23223;51.006;7.610;2024-02-21T10:53:43;17.52;;;5.25;;
37339;SDS011;23223;51.006;7.610;2024-02-21T10:58:55;13.75;;;4.03;;
37339;SDS011;23223;51.006;7.610;2024-02-21T11:01:23;13.77;;;4.15;;
37339;SDS011;23223;51.006;7.610;2024-02-21T11:03:52;12.65;;;3.70;;
37339;SDS011;23223;51.006;7.610;2024-02-21T11:06:19;10.23;;;2.92;;
37339;SDS011;23223;51.006;7.610;2024-02-21T11:08:46;11.07;;;3.40;;
37339;SDS011;23223;51.006;7.610;2024-02-21T11:11:13;12.57;;;4.03;;
37339;SDS011;23223;51.006;7.610;2024-02-21T11:13:43;11.35;;;3.55;;
37339;SDS011;23223;51.006;7.610;2024-02-21T11:16:11;8.90;;;3.17;;
37339;SDS011;23223;51.006;7.610;2024-02-21T11:18:46;10.55;;;4.13;;
37339;SDS011;23223;51.006;7.610;2024-02-21T11:21:12;11.40;;;3.95;;
37339;SDS011;23223;51.006;7.610;2024-02-21T11:23:37;12.00;;;4.30;;
37339;SDS011;23223;51.006;7.610;2024-02-21T11:26:06;14.07;;;4.85;;
37339;SDS011;23223;51.006;7.610;2024-02-21T11:28:33;15.43;;;4.95;;
37339;SDS011;23223;51.006;7.610;2024-02-21T11:31:11;13.40;;;5.05;;
37339;SDS011;23223;51.006;7.610;2024-02-21T11:33:41;14.95;;;4.00;;
37339;SDS011;23223;51.006;7.610;2024-02-21T11:36:10;14.77;;;4.57;;
37339;SDS011;23223;51.006;7.610;2024-02-21T11:38:47;13.75;;;4.60;;
37339;SDS011;23223;51.006;7.610;2024-02-21T11:41:13;11.98;;;4.35;;
37339;SDS011;23223;51.006;7.610;2024-02-21T11:43:38;6.55;;;3.95;;
37339;SDS011;23223;51.006;7.610;2024-02-21T11:46:04;10.38;;;3.70;;
37339;SDS011;23223;51.006;7.610;2024-02-21T11:48:31;19.48;;;4.70;;
37339;SDS011;23223;51.006;7.610;2024-02-21T11:50:57;8.98;;;3.47;;
37339;SDS011;23223;51.006;7.610;2024-02-21T11:53:25;13.63;;;4.40;;
37339;SDS011;23223;51.006;7.610;2024-02-21T11:55:55;11.55;;;3.95;;
37339;SDS011;23223;51.006;7.610;2024-02-21T11:58:21;10.57;;;4.60;;
37339;SDS011;23223;51.006;7.610;2024-02-21T12:00:47;12.13;;;3.13;;
37339;SDS011;23223;51.006;7.610;2024-02-21T12:03:13;11.13;;;4.40;;
37339;SDS011;23223;51.006;7.610;2024-02-21T12:05:40;10.45;;;4.40;;
37339;SDS011;23223;51.006;7.610;2024-02-21T12:08:06;13.07;;;4.93;;
37339;SDS011;23223;51.006;7.610;2024-02-21T12:10:32;17.58;;;4.80;;
37339;SDS011;23223;51.006;7.610;2024-02-21T12:13:05;11.43;;;4.15;;
37339;SDS011;23223;51.006;7.610;2024-02-21T12:15:33;7.18;;;3.40;;
37339;SDS011;23223;51.006;7.610;2024-02-21T12:17:58;13.30;;;4.70;;
37339;SDS011;23223;51.006;7.610;2024-02-21T12:20:25;13.60;;;5.53;;
37339;SDS011;23223;51.006;7.610;2024-02-21T12:22:51;11.80;;;5.95;;
37339;SDS011;23223;51.006;7.610;2024-02-21T12:25:19;11.85;;;5.55;;
37339;SDS011;23223;51.006;7.610;2024-02-21T12:27:51;9.88;;;4.43;;
37339;SDS011;23223;51.006;7.610;2024-02-21T12:30:17;10.50;;;4.63;;
37339;SDS011;23223;51.006;7.610;2024-02-21T12:32:44;16.80;;;5.18;;
37339;SDS011;23223;51.006;7.610;2024-02-21T12:35:10;9.88;;;4.15;;
37339;SDS011;23223;51.006;7.610;2024-02-21T12:37:36;15.52;;;4.68;;
37339;SDS011;23223;51.006;7.610;2024-02-21T12:40:03;11.93;;;3.85;;
37339;SDS011;23223;51.006;7.610;2024-02-21T12:42:33;15.80;;;4.88;;
37339;SDS011;23223;51.006;7.610;2024-02-21T12:45:00;15.82;;;5.55;;
37339;SDS011;23223;51.006;7.610;2024-02-21T12:47:28;23.60;;;5.18;;
37339;SDS011;23223;51.006;7.610;2024-02-21T12:49:53;12.48;;;4.00;;
37339;SDS011;23223;51.006;7.610;2024-02-21T12:52:19;9.20;;;4.20;;
37339;SDS011;23223;51.006;7.610;2024-02-21T12:54:44;15.95;;;5.20;;
37339;SDS011;23223;51.006;7.610;2024-02-21T12:57:10;14.85;;;4.10;;
37339;SDS011;23223;51.006;7.610;2024-02-21T12:59:36;11.90;;;4.65;;
37339;SDS011;23223;51.006;7.610;2024-02-21T13:02:01;11.15;;;4.22;;
37339;SDS011;23223;51.006;7.610;2024-02-21T13:04:27;11.70;;;4.05;;
37339;SDS011;23223;51.006;7.610;2024-02-21T13:06:53;12.50;;;5.10;;
37339;SDS011;23223;51.006;7.610;2024-02-21T13:09:19;15.65;;;4.25;;
37339;SDS011;23223;51.006;7.610;2024-02-21T13:11:47;12.23;;;3.88;;
37339;SDS011;23223;51.006;7.610;2024-02-21T13:14:13;12.13;;;4.32;;
37339;SDS011;23223;51.006;7.610;2024-02-21T13:16:38;10.60;;;4.10;;
37339;SDS011;23223;51.006;7.610;2024-02-21T13:19:04;11.70;;;3.55;;
37339;SDS011;23223;51.006;7.610;2024-02-21T13:21:30;14.10;;;4.55;;
37339;SDS011;23223;51.006;7.610;2024-02-21T13:23:56;11.85;;;3.50;;
37339;SDS011;23223;51.006;7.610;2024-02-21T13:26:22;9.38;;;2.63;;
37339;SDS011;23223;51.006;7.610;2024-02-21T13:28:47;11.30;;;3.92;;
37339;SDS011;23223;51.006;7.610;2024-02-21T13:31:13;11.13;;;4.35;;
37339;SDS011;23223;51.006;7.610;2024-02-21T13:33:41;12.43;;;3.85;;
37339;SDS011;23223;51.006;7.610;2024-02-21T13:36:07;10.45;;;4.10;;
37339;SDS011;23223;51.006;7.610;2024-02-21T13:38:33;5.90;;;2.65;;
37339;SDS011;23223;51.006;7.610;2024-02-21T13:40:58;10.63;;;3.70;;
37339;SDS011;23223;51.006;7.610;2024-02-21T13:43:25;8.57;;;2.65;;
37339;SDS011;23223;51.006;7.610;2024-02-21T13:45:57;10.50;;;3.47;;
37339;SDS011;23223;51.006;7.610;2024-02-21T13:48:24;11.23;;;2.67;;
37339;SDS011;23223;51.006;7.610;2024-02-21T13:50:49;11.38;;;2.50;;
37339;SDS011;23223;51.006;7.610;2024-02-21T13:53:15;12.30;;;4.10;;
37339;SDS011;23223;51.006;7.610;2024-02-21T13:55:43;11.10;;;3.05;;
37339;SDS011;23223;51.006;7.610;2024-02-21T13:58:12;16.00;;;3.45;;
37339;SDS011;23223;51.006;7.610;2024-02-21T14:00:37;4.05;;;2.05;;
37339;SDS011;23223;51.006;7.610;2024-02-21T14:03:03;13.00;;;4.10;;
37339;SDS011;23223;51.006;7.610;2024-02-21T14:05:29;12.00;;;3.78;;
37339;SDS011;23223;51.006;7.610;2024-02-21T14:07:55;9.20;;;3.28;;
37339;SDS011;23223;51.006;7.610;2024-02-21T14:10:21;10.55;;;2.92;;
37339;SDS011;23223;51.006;7.610;2024-02-21T14:12:47;8.75;;;4.13;;
37339;SDS011;23223;51.006;7.610;2024-02-21T14:15:13;9.43;;;3.65;;
37339;SDS011;23223;51.006;7.610;2024-02-21T14:17:39;7.20;;;2.60;;
37339;SDS011;23223;51.006;7.610;2024-02-21T14:20:05;8.15;;;2.58;;
37339;SDS011;23223;51.006;7.610;2024-02-21T14:22:32;11.25;;;3.08;;
37339;SDS011;23223;51.006;7.610;2024-02-21T14:24:59;11.48;;;3.60;;
37339;SDS011;23223;51.006;7.610;2024-02-21T14:27:25;8.07;;;2.70;;
37339;SDS011;23223;51.006;7.610;2024-02-21T14:29:51;9.48;;;2.80;;
37339;SDS011;23223;51.006;7.610;2024-02-21T14:32:17;11.52;;;3.00;;
37339;SDS011;23223;51.006;7.610;2024-02-21T14:34:42;12.82;;;2.60;;
37339;SDS011;23223;51.006;7.610;2024-02-21T14:37:08;8.55;;;2.78;;
37339;SDS011;23223;51.006;7.610;2024-02-21T14:39:33;10.50;;;3.15;;
37339;SDS011;23223;51.006;7.610;2024-02-21T14:42:00;15.13;;;3.75;;